sensor_id;sensor_type;location;lat;lon;timestamp;pressure;altitude;pressure_sealevel;temperature;humidity
22031;BME280;11179;52.106;21.024;2023-08-07T00:01:18;98790.03;;;16.49;67.56
22031;BME280;11179;52.106;21.024;2023-08-07T00:03:43;98793.13;;;16.47;67.94
22031;BME280;11179;52.106;21.024;2023-08-07T00:06:08;98792.31;;;16.47;67.92
22031;BME280;11179;52.106;21.024;2023-08-07T00:08:34;98808.44;;;16.45;67.94
22031;BME280;11179;52.106;21.024;2023-08-07T00:11:08;98796.41;;;16.41;68.20
22031;BME280;11179;52.106;21.024;2023-08-07T00:13:34;98797.22;;;16.41;68.29
22031;BME280;11179;52.106;21.024;2023-08-07T00:15:59;98794.78;;;16.40;68.37
22031;BME280;11179;52.106;21.024;2023-08-07T00:18:25;98797.75;;;16.35;68.50
22031;BME280;11179;52.106;21.024;2023-08-07T00:20:50;98800.84;;;16.33;68.57
22031;BME280;11179;52.106;21.024;2023-08-07T00:23:15;98806.25;;;16.30;68.85
22031;BME280;11179;52.106;21.024;2023-08-07T00:25:41;98803.97;;;16.32;68.77
22031;BME280;11179;52.106;21.024;2023-08-07T00:28:06;98802.66;;;16.29;68.53
22031;BME280;11179;52.106;21.024;2023-08-07T00:30:31;98802.88;;;16.24;68.79
22031;BME280;11179;52.106;21.024;2023-08-07T00:32:56;98811.19;;;16.24;68.64
22031;BME280;11179;52.106;21.024;2023-08-07T00:35:22;98800.44;;;16.23;68.71
22031;BME280;11179;52.106;21.024;2023-08-07T00:37:47;98801.38;;;16.27;68.49
22031;BME280;11179;52.106;21.024;2023-08-07T00:40:12;98804.94;;;16.27;68.41
22031;BME280;11179;52.106;21.024;2023-08-07T00:42:38;98785.44;;;16.24;68.42
22031;BME280;11179;52.106;21.024;2023-08-07T00:45:04;98779.91;;;16.24;68.26
22031;BME280;11179;52.106;21.024;2023-08-07T00:47:30;98775.69;;;16.17;68.48
22031;BME280;11179;52.106;21.024;2023-08-07T00:49:57;98780.75;;;16.15;68.66
22031;BME280;11179;52.106;21.024;2023-08-07T00:52:23;98778.78;;;16.16;68.74
22031;BME280;11179;52.106;21.024;2023-08-07T00:54:48;98772.44;;;16.15;68.89
22031;BME280;11179;52.106;21.024;2023-08-07T00:57:14;98766.09;;;16.15;68.58
22031;BME280;11179;52.106;21.024;2023-08-07T00:59:42;98768.84;;;16.15;68.38
22031;BME280;11179;52.106;21.024;2023-08-07T01:02:08;98774.06;;;16.16;68.47
22031;BME280;11179;52.106;21.024;2023-08-07T01:04:34;98771.78;;;16.19;68.58
22031;BME280;11179;52.106;21.024;2023-08-07T01:06:59;98763.00;;;16.16;68.43
22031;BME280;11179;52.106;21.024;2023-08-07T01:09:25;98768.38;;;16.13;68.57
22031;BME280;11179;52.106;21.024;2023-08-07T01:12:00;98759.59;;;16.11;68.36
22031;BME280;11179;52.106;21.024;2023-08-07T01:14:41;98761.22;;;16.12;68.44
22031;BME280;11179;52.106;21.024;2023-08-07T01:17:15;98763.97;;;16.12;68.39
22031;BME280;11179;52.106;21.024;2023-08-07T01:19:41;98765.13;;;16.11;68.45
22031;BME280;11179;52.106;21.024;2023-08-07T01:22:14;98753.13;;;16.07;68.61
22031;BME280;11179;52.106;21.024;2023-08-07T01:24:42;98765.19;;;16.02;68.86
22031;BME280;11179;52.106;21.024;2023-08-07T01:30:12;98765.38;;;15.97;69.13
22031;BME280;11179;52.106;21.024;2023-08-07T01:33:04;98768.00;;;15.94;69.21
22031;BME280;11179;52.106;21.024;2023-08-07T01:35:35;98769.78;;;15.90;69.19
22031;BME280;11179;52.106;21.024;2023-08-07T01:38:04;98766.53;;;15.88;69.41
22031;BME280;11179;52.106;21.024;2023-08-07T01:40:32;98780.72;;;15.86;69.51
22031;BME280;11179;52.106;21.024;2023-08-07T01:42:58;98785.09;;;15.87;69.58
22031;BME280;11179;52.106;21.024;2023-08-07T01:45:24;98808.06;;;15.88;69.65
22031;BME280;11179;52.106;21.024;2023-08-07T01:47:50;98802.84;;;15.86;69.76
22031;BME280;11179;52.106;21.024;2023-08-07T01:50:15;98797.31;;;15.86;69.86
22031;BME280;11179;52.106;21.024;2023-08-07T01:52:41;98785.78;;;15.84;70.06
22031;BME280;11179;52.106;21.024;2023-08-07T01:55:06;98783.34;;;15.83;70.27
22031;BME280;11179;52.106;21.024;2023-08-07T01:57:31;98778.63;;;15.83;70.30
22031;BME280;11179;52.106;21.024;2023-08-07T01:59:57;98777.31;;;15.80;70.37
22031;BME280;11179;52.106;21.024;2023-08-07T02:02:22;98769.03;;;15.72;70.49
22031;BME280;11179;52.106;21.024;2023-08-07T02:04:48;98770.06;;;15.67;70.85
22031;BME280;11179;52.106;21.024;2023-08-07T02:07:14;98764.53;;;15.67;70.87
22031;BME280;11179;52.106;21.024;2023-08-07T02:09:39;98763.06;;;15.70;71.03
22031;BME280;11179;52.106;21.024;2023-08-07T02:12:05;98757.03;;;15.68;70.92
22031;BME280;11179;52.106;21.024;2023-08-07T02:14:30;98758.50;;;15.65;70.92
22031;BME280;11179;52.106;21.024;2023-08-07T02:16:55;98761.88;;;15.62;70.93
22031;BME280;11179;52.106;21.024;2023-08-07T02:19:21;98780.75;;;15.60;71.07
22031;BME280;11179;52.106;21.024;2023-08-07T02:21:46;98794.59;;;15.60;71.01
22031;BME280;11179;52.106;21.024;2023-08-07T02:24:11;98813.84;;;15.57;71.22
22031;BME280;11179;52.106;21.024;2023-08-07T02:26:36;98826.03;;;15.56;71.22
22031;BME280;11179;52.106;21.024;2023-08-07T02:29:02;98821.63;;;15.55;71.40
22031;BME280;11179;52.106;21.024;2023-08-07T02:31:29;98816.25;;;15.58;71.09
22031;BME280;11179;52.106;21.024;2023-08-07T02:33:54;98795.59;;;15.56;71.02
22031;BME280;11179;52.106;21.024;2023-08-07T02:36:19;98803.91;;;15.56;70.90
22031;BME280;11179;52.106;21.024;2023-08-07T02:38:44;98805.03;;;15.55;70.94
22031;BME280;11179;52.106;21.024;2023-08-07T02:41:10;98798.38;;;15.56;70.77
22031;BME280;11179;52.106;21.024;2023-08-07T02:43:36;98809.28;;;15.52;70.78
22031;BME280;11179;52.106;21.024;2023-08-07T02:46:02;98806.34;;;15.49;70.76
22031;BME280;11179;52.106;21.024;2023-08-07T02:48:27;98815.28;;;15.45;70.94
22031;BME280;11179;52.106;21.024;2023-08-07T02:50:52;98819.19;;;15.44;70.82
22031;BME280;11179;52.106;21.024;2023-08-07T02:53:18;98835.13;;;15.48;70.84
22031;BME280;11179;52.106;21.024;2023-08-07T02:55:44;98819.03;;;15.50;70.77
22031;BME280;11179;52.106;21.024;2023-08-07T02:58:09;98820.19;;;15.49;70.57
22031;BME280;11179;52.106;21.024;2023-08-07T03:00:35;98809.94;;;15.49;70.85
22031;BME280;11179;52.106;21.024;2023-08-07T03:03:00;98807.16;;;15.49;70.59
22031;BME280;11179;52.106;21.024;2023-08-07T03:05:25;98796.09;;;15.49;70.99
22031;BME280;11179;52.106;21.024;2023-08-07T03:07:51;98806.34;;;15.49;70.93
22031;BME280;11179;52.106;21.024;2023-08-07T03:10:16;98808.13;;;15.44;70.99
22031;BME280;11179;52.106;21.024;2023-08-07T03:12:41;98820.69;;;15.42;71.07
22031;BME280;11179;52.106;21.024;2023-08-07T03:15:07;98825.41;;;15.41;71.09
22031;BME280;11179;52.106;21.024;2023-08-07T03:17:32;98836.47;;;15.41;71.30
22031;BME280;11179;52.106;21.024;2023-08-07T03:19:57;98834.84;;;15.40;71.03
22031;BME280;11179;52.106;21.024;2023-08-07T03:22:23;98837.13;;;15.38;71.01
22031;BME280;11179;52.106;21.024;2023-08-07T03:24:48;98847.38;;;15.38;70.84
22031;BME280;11179;52.106;21.024;2023-08-07T03:27:14;98848.19;;;15.38;70.80
22031;BME280;11179;52.106;21.024;2023-08-07T03:29:40;98848.50;;;15.37;70.71
22031;BME280;11179;52.106;21.024;2023-08-07T03:32:05;98859.88;;;15.35;70.97
22031;BME280;11179;52.106;21.024;2023-08-07T03:34:31;98858.56;;;15.33;71.11
22031;BME280;11179;52.106;21.024;2023-08-07T03:36:56;98852.72;;;15.34;71.01
22031;BME280;11179;52.106;21.024;2023-08-07T03:39:21;98855.97;;;15.36;71.14
22031;BME280;11179;52.106;21.024;2023-08-07T03:41:46;98859.25;;;15.38;71.13
22031;BME280;11179;52.106;21.024;2023-08-07T03:44:12;98847.19;;;15.34;71.12
22031;BME280;11179;52.106;21.024;2023-08-07T03:46:37;98860.53;;;15.41;71.13
22031;BME280;11179;52.106;21.024;2023-08-07T03:49:03;98857.78;;;15.41;70.99
22031;BME280;11179;52.106;21.024;2023-08-07T03:51:28;98847.53;;;15.41;70.87
22031;BME280;11179;52.106;21.024;2023-08-07T03:53:54;98848.97;;;15.48;70.75
22031;BME280;11179;52.106;21.024;2023-08-07T03:56:20;98851.91;;;15.51;70.93
22031;BME280;11179;52.106;21.024;2023-08-07T03:58:45;98848.50;;;15.54;70.84
22031;BME280;11179;52.106;21.024;2023-08-07T04:01:10;98847.66;;;15.54;70.82
22031;BME280;11179;52.106;21.024;2023-08-07T04:03:36;98846.53;;;15.55;70.69
22031;BME280;11179;52.106;21.024;2023-08-07T04:06:02;98844.25;;;15.57;70.51
22031;BME280;11179;52.106;21.024;2023-08-07T04:08:30;98840.69;;;15.56;70.41
22031;BME280;11179;52.106;21.024;2023-08-07T04:11:02;98847.66;;;15.54;70.36
22031;BME280;11179;52.106;21.024;2023-08-07T04:13:29;98837.91;;;15.48;70.01
22031;BME280;11179;52.106;21.024;2023-08-07T04:15:54;98851.91;;;15.51;69.77
22031;BME280;11179;52.106;21.024;2023-08-07T04:18:20;98847.66;;;15.45;69.61
22031;BME280;11179;52.106;21.024;2023-08-07T04:20:55;98861.66;;;15.49;69.36
22031;BME280;11179;52.106;21.024;2023-08-07T04:23:22;98855.81;;;15.50;69.23
22031;BME280;11179;52.106;21.024;2023-08-07T04:25:48;98867.38;;;15.43;69.07
22031;BME280;11179;52.106;21.024;2023-08-07T04:28:13;98861.66;;;15.49;69.08
22031;BME280;11179;52.106;21.024;2023-08-07T04:30:40;98862.16;;;15.51;69.12
22031;BME280;11179;52.106;21.024;2023-08-07T04:33:05;98858.75;;;15.54;68.85
22031;BME280;11179;52.106;21.024;2023-08-07T04:35:31;98871.44;;;15.55;68.64
22031;BME280;11179;52.106;21.024;2023-08-07T04:37:56;98875.63;;;15.61;68.42
22031;BME280;11179;52.106;21.024;2023-08-07T04:40:22;98883.81;;;15.57;68.24
22031;BME280;11179;52.106;21.024;2023-08-07T04:42:49;98893.56;;;15.63;67.97
22031;BME280;11179;52.106;21.024;2023-08-07T04:45:14;98890.97;;;15.67;67.43
22031;BME280;11179;52.106;21.024;2023-08-07T04:47:40;98882.03;;;15.70;67.69
22031;BME280;11179;52.106;21.024;2023-08-07T04:50:06;98883.66;;;15.71;67.48
22031;BME280;11179;52.106;21.024;2023-08-07T04:52:32;98875.00;;;15.72;67.32
22031;BME280;11179;52.106;21.024;2023-08-07T04:54:57;98884.59;;;15.75;67.22
22031;BME280;11179;52.106;21.024;2023-08-07T04:57:22;98878.41;;;15.78;67.30
22031;BME280;11179;52.106;21.024;2023-08-07T04:59:48;98875.16;;;15.76;66.91
22031;BME280;11179;52.106;21.024;2023-08-07T05:02:13;98885.91;;;15.77;67.03
22031;BME280;11179;52.106;21.024;2023-08-07T05:04:39;98887.03;;;15.76;66.87
22031;BME280;11179;52.106;21.024;2023-08-07T05:07:05;98887.22;;;15.80;66.83
22031;BME280;11179;52.106;21.024;2023-08-07T05:09:30;98888.19;;;15.84;66.73
22031;BME280;11179;52.106;21.024;2023-08-07T05:11:56;98899.38;;;15.88;66.63
22031;BME280;11179;52.106;21.024;2023-08-07T05:14:21;98903.94;;;15.92;66.60
22031;BME280;11179;52.106;21.024;2023-08-07T05:16:46;98909.78;;;15.99;66.57
22031;BME280;11179;52.106;21.024;2023-08-07T05:19:12;98900.00;;;16.02;66.56
22031;BME280;11179;52.106;21.024;2023-08-07T05:21:37;98899.69;;;16.03;66.38
22031;BME280;11179;52.106;21.024;2023-08-07T05:24:02;98895.44;;;16.06;66.25
22031;BME280;11179;52.106;21.024;2023-08-07T05:26:28;98905.66;;;16.14;66.52
22031;BME280;11179;52.106;21.024;2023-08-07T05:28:55;98895.72;;;16.13;66.19
22031;BME280;11179;52.106;21.024;2023-08-07T05:31:22;98891.16;;;16.17;66.14
22031;BME280;11179;52.106;21.024;2023-08-07T05:33:47;98895.72;;;16.22;66.14
22031;BME280;11179;52.106;21.024;2023-08-07T05:36:13;98902.03;;;16.31;65.99
22031;BME280;11179;52.106;21.024;2023-08-07T05:38:38;98900.72;;;16.37;65.77
22031;BME280;11179;52.106;21.024;2023-08-07T05:41:03;98896.28;;;16.44;65.75
22031;BME280;11179;52.106;21.024;2023-08-07T05:43:28;98902.16;;;16.43;65.17
22031;BME280;11179;52.106;21.024;2023-08-07T05:45:54;98900.34;;;16.47;65.43
22031;BME280;11179;52.106;21.024;2023-08-07T05:48:19;98892.38;;;16.45;65.32
22031;BME280;11179;52.106;21.024;2023-08-07T05:50:44;98898.72;;;16.46;65.42
22031;BME280;11179;52.106;21.024;2023-08-07T05:53:10;98899.31;;;16.51;65.07
22031;BME280;11179;52.106;21.024;2023-08-07T05:55:35;98898.66;;;16.55;65.00
22031;BME280;11179;52.106;21.024;2023-08-07T05:58:03;98903.41;;;16.54;64.80
22031;BME280;11179;52.106;21.024;2023-08-07T06:00:29;98901.44;;;16.55;64.64
22031;BME280;11179;52.106;21.024;2023-08-07T06:02:54;98897.72;;;16.50;64.43
22031;BME280;11179;52.106;21.024;2023-08-07T06:05:19;98901.28;;;16.51;64.19
22031;BME280;11179;52.106;21.024;2023-08-07T06:07:45;98909.25;;;16.52;64.20
22031;BME280;11179;52.106;21.024;2023-08-07T06:10:11;98887.91;;;16.53;63.82
22031;BME280;11179;52.106;21.024;2023-08-07T06:12:36;98910.91;;;16.62;63.67
22031;BME280;11179;52.106;21.024;2023-08-07T06:15:02;98910.03;;;16.70;63.57
22031;BME280;11179;52.106;21.024;2023-08-07T06:17:28;98911.81;;;16.75;63.21
22031;BME280;11179;52.106;21.024;2023-08-07T06:19:53;98903.50;;;16.75;63.27
22031;BME280;11179;52.106;21.024;2023-08-07T06:22:21;98893.00;;;16.80;62.91
22031;BME280;11179;52.106;21.024;2023-08-07T06:24:46;98884.38;;;16.82;62.75
22031;BME280;11179;52.106;21.024;2023-08-07T06:27:12;98892.16;;;16.89;62.63
22031;BME280;11179;52.106;21.024;2023-08-07T06:29:37;98888.44;;;16.84;62.52
22031;BME280;11179;52.106;21.024;2023-08-07T06:32:03;98906.69;;;16.85;62.24
22031;BME280;11179;52.106;21.024;2023-08-07T06:34:28;98899.03;;;16.82;61.68
22031;BME280;11179;52.106;21.024;2023-08-07T06:36:53;98906.88;;;16.80;61.71
22031;BME280;11179;52.106;21.024;2023-08-07T06:39:19;98896.00;;;16.75;61.40
22031;BME280;11179;52.106;21.024;2023-08-07T06:41:44;98892.41;;;16.75;61.16
22031;BME280;11179;52.106;21.024;2023-08-07T06:44:09;98908.84;;;16.80;60.92
22031;BME280;11179;52.106;21.024;2023-08-07T06:46:35;98907.84;;;16.84;60.65
22031;BME280;11179;52.106;21.024;2023-08-07T06:49:00;98912.84;;;16.91;60.29
22031;BME280;11179;52.106;21.024;2023-08-07T06:51:25;98922.94;;;16.96;60.12
22031;BME280;11179;52.106;21.024;2023-08-07T06:53:51;98923.97;;;17.12;59.68
22031;BME280;11179;52.106;21.024;2023-08-07T06:56:16;98921.19;;;17.33;59.44
22031;BME280;11179;52.106;21.024;2023-08-07T06:58:41;98926.78;;;17.53;59.11
22031;BME280;11179;52.106;21.024;2023-08-07T07:01:07;98928.38;;;17.75;58.53
22031;BME280;11179;52.106;21.024;2023-08-07T07:03:32;98932.16;;;17.91;58.33
22031;BME280;11179;52.106;21.024;2023-08-07T07:05:57;98932.06;;;18.00;57.87
22031;BME280;11179;52.106;21.024;2023-08-07T07:08:23;98934.44;;;18.10;57.71
22031;BME280;11179;52.106;21.024;2023-08-07T07:10:48;98933.13;;;18.08;57.27
22031;BME280;11179;52.106;21.024;2023-08-07T07:13:14;98939.91;;;17.98;57.33
22031;BME280;11179;52.106;21.024;2023-08-07T07:15:39;98930.41;;;17.87;57.20
22031;BME280;11179;52.106;21.024;2023-08-07T07:18:04;98939.16;;;17.77;57.19
22031;BME280;11179;52.106;21.024;2023-08-07T07:20:30;98935.84;;;17.63;56.77
22031;BME280;11179;52.106;21.024;2023-08-07T07:22:56;98945.72;;;17.72;57.05
22031;BME280;11179;52.106;21.024;2023-08-07T07:25:21;98940.97;;;17.73;56.75
22031;BME280;11179;52.106;21.024;2023-08-07T07:27:46;98958.59;;;17.77;56.62
22031;BME280;11179;52.106;21.024;2023-08-07T07:30:12;98963.66;;;17.75;56.61
22031;BME280;11179;52.106;21.024;2023-08-07T07:32:37;98961.22;;;17.73;56.52
22031;BME280;11179;52.106;21.024;2023-08-07T07:35:02;98963.53;;;17.71;56.69
22031;BME280;11179;52.106;21.024;2023-08-07T07:37:30;98965.69;;;17.66;56.78
22031;BME280;11179;52.106;21.024;2023-08-07T07:39:55;98963.19;;;17.52;56.75
22031;BME280;11179;52.106;21.024;2023-08-07T07:42:20;98973.38;;;17.39;56.92
22031;BME280;11179;52.106;21.024;2023-08-07T07:44:46;98970.94;;;17.38;57.04
22031;BME280;11179;52.106;21.024;2023-08-07T07:47:11;98969.41;;;17.49;56.82
22031;BME280;11179;52.106;21.024;2023-08-07T07:49:36;98964.75;;;17.62;56.65
22031;BME280;11179;52.106;21.024;2023-08-07T07:52:02;98975.91;;;17.74;56.48
22031;BME280;11179;52.106;21.024;2023-08-07T07:54:28;98970.00;;;17.96;56.21
22031;BME280;11179;52.106;21.024;2023-08-07T07:56:53;98964.41;;;18.17;55.94
22031;BME280;11179;52.106;21.024;2023-08-07T07:59:19;98961.41;;;18.22;55.36
22031;BME280;11179;52.106;21.024;2023-08-07T08:01:44;98964.31;;;18.25;55.45
22031;BME280;11179;52.106;21.024;2023-08-07T08:04:09;98971.53;;;18.39;55.25
22031;BME280;11179;52.106;21.024;2023-08-07T08:06:35;98976.44;;;18.54;54.81
22031;BME280;11179;52.106;21.024;2023-08-07T08:09:00;98981.31;;;18.57;54.59
22031;BME280;11179;52.106;21.024;2023-08-07T08:11:29;98977.84;;;18.48;54.75
22031;BME280;11179;52.106;21.024;2023-08-07T08:13:54;98976.66;;;18.37;54.58
22031;BME280;11179;52.106;21.024;2023-08-07T08:16:20;98979.00;;;18.47;54.25
22031;BME280;11179;52.106;21.024;2023-08-07T08:18:45;98982.75;;;19.12;53.70
22031;BME280;11179;52.106;21.024;2023-08-07T08:21:10;98970.09;;;19.51;53.49
22031;BME280;11179;52.106;21.024;2023-08-07T08:23:35;98973.75;;;20.07;52.61
22031;BME280;11179;52.106;21.024;2023-08-07T08:26:01;98981.34;;;20.22;51.89
22031;BME280;11179;52.106;21.024;2023-08-07T08:28:26;98993.81;;;20.13;51.80
22031;BME280;11179;52.106;21.024;2023-08-07T08:30:52;98982.50;;;19.93;51.67
22031;BME280;11179;52.106;21.024;2023-08-07T08:33:17;98994.38;;;19.78;51.97
22031;BME280;11179;52.106;21.024;2023-08-07T08:35:42;98984.50;;;19.81;51.80
22031;BME280;11179;52.106;21.024;2023-08-07T08:38:08;98983.81;;;19.84;51.39
22031;BME280;11179;52.106;21.024;2023-08-07T08:40:35;98983.44;;;19.85;51.39
22031;BME280;11179;52.106;21.024;2023-08-07T08:43:01;98987.94;;;19.90;50.62
22031;BME280;11179;52.106;21.024;2023-08-07T08:45:27;98981.41;;;20.10;50.17
22031;BME280;11179;52.106;21.024;2023-08-07T08:48:01;98987.75;;;20.38;50.04
22031;BME280;11179;52.106;21.024;2023-08-07T08:50:27;98986.97;;;21.32;48.86
22031;BME280;11179;52.106;21.024;2023-08-07T08:52:55;98969.66;;;21.77;47.74
22031;BME280;11179;52.106;21.024;2023-08-07T08:55:21;98971.34;;;22.21;47.03
22031;BME280;11179;52.106;21.024;2023-08-07T08:57:48;98977.06;;;22.47;46.11
22031;BME280;11179;52.106;21.024;2023-08-07T09:00:15;98979.88;;;22.70;45.65
22031;BME280;11179;52.106;21.024;2023-08-07T09:02:49;98974.06;;;22.82;45.38
22031;BME280;11179;52.106;21.024;2023-08-07T09:05:17;98985.19;;;23.24;44.77
22031;BME280;11179;52.106;21.024;2023-08-07T09:07:43;98990.78;;;23.50;43.84
22031;BME280;11179;52.106;21.024;2023-08-07T09:10:11;98999.28;;;23.84;43.33
22031;BME280;11179;52.106;21.024;2023-08-07T09:12:40;98996.91;;;24.16;42.61
22031;BME280;11179;52.106;21.024;2023-08-07T09:15:06;99000.19;;;24.25;42.00
22031;BME280;11179;52.106;21.024;2023-08-07T09:17:36;99006.00;;;24.06;41.65
22031;BME280;11179;52.106;21.024;2023-08-07T09:20:04;99018.09;;;23.83;41.45
22031;BME280;11179;52.106;21.024;2023-08-07T09:22:29;99023.88;;;23.98;41.16
22031;BME280;11179;52.106;21.024;2023-08-07T09:24:55;99008.03;;;24.09;40.69
22031;BME280;11179;52.106;21.024;2023-08-07T09:27:21;99019.88;;;23.95;40.39
22031;BME280;11179;52.106;21.024;2023-08-07T09:29:47;99020.19;;;24.20;40.17
22031;BME280;11179;52.106;21.024;2023-08-07T09:32:12;99027.63;;;24.39;39.58
22031;BME280;11179;52.106;21.024;2023-08-07T09:34:42;99031.84;;;24.22;40.02
22031;BME280;11179;52.106;21.024;2023-08-07T09:37:10;99036.38;;;24.30;39.51
22031;BME280;11179;52.106;21.024;2023-08-07T09:39:36;99047.91;;;24.58;39.02
22031;BME280;11179;52.106;21.024;2023-08-07T09:42:12;99057.94;;;24.59;38.49
22031;BME280;11179;52.106;21.024;2023-08-07T09:44:38;99063.50;;;24.26;38.52
22031;BME280;11179;52.106;21.024;2023-08-07T09:47:17;99070.41;;;24.02;38.97
22031;BME280;11179;52.106;21.024;2023-08-07T09:49:44;99078.38;;;23.97;38.84
22031;BME280;11179;52.106;21.024;2023-08-07T09:52:11;99079.56;;;23.69;38.79
22031;BME280;11179;52.106;21.024;2023-08-07T09:54:39;99068.03;;;23.51;39.20
22031;BME280;11179;52.106;21.024;2023-08-07T09:57:05;99078.69;;;23.65;39.45
22031;BME280;11179;52.106;21.024;2023-08-07T09:59:34;99064.53;;;23.58;39.35
22031;BME280;11179;52.106;21.024;2023-08-07T10:02:01;99073.78;;;23.36;39.56
22031;BME280;11179;52.106;21.024;2023-08-07T10:04:30;99075.16;;;23.23;39.72
22031;BME280;11179;52.106;21.024;2023-08-07T10:06:56;99082.75;;;23.68;39.35
22031;BME280;11179;52.106;21.024;2023-08-07T10:09:22;99071.41;;;24.17;38.77
22031;BME280;11179;52.106;21.024;2023-08-07T10:11:51;99075.63;;;24.30;39.00
22031;BME280;11179;52.106;21.024;2023-08-07T10:14:17;99070.38;;;24.58;38.36
22031;BME280;11179;52.106;21.024;2023-08-07T10:16:43;99065.19;;;24.60;38.07
22031;BME280;11179;52.106;21.024;2023-08-07T10:19:10;99070.94;;;24.41;38.37
22031;BME280;11179;52.106;21.024;2023-08-07T10:21:38;99076.34;;;24.27;38.33
22031;BME280;11179;52.106;21.024;2023-08-07T10:24:04;99069.28;;;24.07;38.62
22031;BME280;11179;52.106;21.024;2023-08-07T10:26:32;99077.28;;;23.78;39.06
22031;BME280;11179;52.106;21.024;2023-08-07T10:28:58;99071.16;;;23.46;39.18
22031;BME280;11179;52.106;21.024;2023-08-07T10:31:26;99084.69;;;23.41;39.68
22031;BME280;11179;52.106;21.024;2023-08-07T10:33:52;99083.53;;;23.45;39.68
22031;BME280;11179;52.106;21.024;2023-08-07T10:36:18;99087.22;;;23.49;39.32
22031;BME280;11179;52.106;21.024;2023-08-07T10:38:47;99072.41;;;23.49;39.47
22031;BME280;11179;52.106;21.024;2023-08-07T10:41:14;99070.75;;;23.21;39.40
22031;BME280;11179;52.106;21.024;2023-08-07T10:43:40;99082.91;;;22.87;39.86
22031;BME280;11179;52.106;21.024;2023-08-07T10:46:12;99070.84;;;22.83;40.05
22031;BME280;11179;52.106;21.024;2023-08-07T10:48:44;99074.44;;;22.83;39.79
22031;BME280;11179;52.106;21.024;2023-08-07T10:51:13;99077.78;;;22.70;40.07
22031;BME280;11179;52.106;21.024;2023-08-07T10:53:44;99089.34;;;22.68;40.05
22031;BME280;11179;52.106;21.024;2023-08-07T10:56:18;99077.66;;;22.63;39.84
22031;BME280;11179;52.106;21.024;2023-08-07T10:58:54;99088.78;;;22.59;39.46
22031;BME280;11179;52.106;21.024;2023-08-07T11:01:27;99097.25;;;22.63;39.60
22031;BME280;11179;52.106;21.024;2023-08-07T11:04:11;99105.63;;;22.63;39.39
22031;BME280;11179;52.106;21.024;2023-08-07T11:06:38;99099.88;;;22.56;39.45
22031;BME280;11179;52.106;21.024;2023-08-07T11:09:06;99100.03;;;22.63;39.14
22031;BME280;11179;52.106;21.024;2023-08-07T11:11:40;99097.19;;;22.82;38.89
22031;BME280;11179;52.106;21.024;2023-08-07T11:14:06;99092.47;;;23.05;39.28
22031;BME280;11179;52.106;21.024;2023-08-07T11:16:34;99094.81;;;23.49;38.80
22031;BME280;11179;52.106;21.024;2023-08-07T11:18:59;99094.38;;;23.70;38.15
22031;BME280;11179;52.106;21.024;2023-08-07T11:21:25;99106.88;;;23.76;37.60
22031;BME280;11179;52.106;21.024;2023-08-07T11:23:50;99100.25;;;23.61;37.92
22031;BME280;11179;52.106;21.024;2023-08-07T11:26:15;99094.09;;;23.78;37.91
22031;BME280;11179;52.106;21.024;2023-08-07T11:28:42;99107.19;;;23.48;37.23
22031;BME280;11179;52.106;21.024;2023-08-07T11:31:08;99099.13;;;23.43;37.45
22031;BME280;11179;52.106;21.024;2023-08-07T11:33:33;99105.09;;;23.41;37.06
22031;BME280;11179;52.106;21.024;2023-08-07T11:36:00;99096.75;;;23.45;37.34
22031;BME280;11179;52.106;21.024;2023-08-07T11:38:30;99101.34;;;23.34;38.04
22031;BME280;11179;52.106;21.024;2023-08-07T11:41:07;99091.41;;;23.13;38.24
22031;BME280;11179;52.106;21.024;2023-08-07T11:43:35;99099.94;;;23.20;38.36
22031;BME280;11179;52.106;21.024;2023-08-07T11:46:04;99104.59;;;23.36;37.94
22031;BME280;11179;52.106;21.024;2023-08-07T11:48:34;99095.59;;;23.23;38.06
22031;BME280;11179;52.106;21.024;2023-08-07T11:51:00;99088.09;;;23.31;38.47
22031;BME280;11179;52.106;21.024;2023-08-07T11:53:28;99087.97;;;23.46;38.25
22031;BME280;11179;52.106;21.024;2023-08-07T11:58:27;99088.28;;;23.64;37.84
22031;BME280;11179;52.106;21.024;2023-08-07T12:00:53;99088.13;;;23.57;37.66
22031;BME280;11179;52.106;21.024;2023-08-07T12:03:30;99082.53;;;23.57;37.83
22031;BME280;11179;52.106;21.024;2023-08-07T12:05:57;99083.34;;;23.57;38.16
22031;BME280;11179;52.106;21.024;2023-08-07T12:08:23;99083.59;;;23.49;37.87
22031;BME280;11179;52.106;21.024;2023-08-07T12:10:50;99087.66;;;23.51;37.76
22031;BME280;11179;52.106;21.024;2023-08-07T12:13:19;99088.09;;;23.31;37.45
22031;BME280;11179;52.106;21.024;2023-08-07T12:15:44;99106.84;;;23.27;37.68
22031;BME280;11179;52.106;21.024;2023-08-07T12:18:10;99096.94;;;23.33;37.44
22031;BME280;11179;52.106;21.024;2023-08-07T12:20:37;99105.56;;;23.47;37.35
22031;BME280;11179;52.106;21.024;2023-08-07T12:23:02;99113.38;;;23.34;37.43
22031;BME280;11179;52.106;21.024;2023-08-07T12:25:27;99117.16;;;23.23;37.73
22031;BME280;11179;52.106;21.024;2023-08-07T12:27:53;99130.44;;;23.03;38.08
22031;BME280;11179;52.106;21.024;2023-08-07T12:30:18;99136.25;;;22.75;38.08
22031;BME280;11179;52.106;21.024;2023-08-07T12:32:43;99137.88;;;22.57;38.46
22031;BME280;11179;52.106;21.024;2023-08-07T12:35:08;99155.69;;;22.48;38.84
22031;BME280;11179;52.106;21.024;2023-08-07T12:37:34;99153.63;;;22.45;39.28
22031;BME280;11179;52.106;21.024;2023-08-07T12:39:59;99164.22;;;22.36;39.39
22031;BME280;11179;52.106;21.024;2023-08-07T12:42:25;99160.81;;;22.27;39.26
22031;BME280;11179;52.106;21.024;2023-08-07T12:44:50;99163.69;;;22.15;39.44
22031;BME280;11179;52.106;21.024;2023-08-07T12:47:15;99173.25;;;22.14;39.76
22031;BME280;11179;52.106;21.024;2023-08-07T12:49:40;99173.34;;;22.17;39.46
22031;BME280;11179;52.106;21.024;2023-08-07T12:52:06;99158.63;;;22.36;38.94